sensor_id;sensor_type;location;lat;lon;timestamp;pressure;altitude;pressure_sealevel;temperature;humidity
26563;BME280;14217;50.986;5.826;2022-09-03T00:01:46;100418.22;;;27.51;32.13
26563;BME280;14217;50.986;5.826;2022-09-03T00:07:00;100418.81;;;27.54;32.14
26563;BME280;14217;50.986;5.826;2022-09-03T00:12:20;100409.78;;;27.55;31.99
26563;BME280;14217;50.986;5.826;2022-09-03T00:17:37;100411.88;;;27.52;32.22
26563;BME280;14217;50.986;5.826;2022-09-03T00:22:53;100407.75;;;27.57;32.19
26563;BME280;14217;50.986;5.826;2022-09-03T00:27:56;100408.34;;;27.61;32.02
26563;BME280;14217;50.986;5.826;2022-09-03T00:33:13;100409.06;;;27.53;32.32
26563;BME280;14217;50.986;5.826;2022-09-03T00:38:19;100399.84;;;27.56;32.31
26563;BME280;14217;50.986;5.826;2022-09-03T00:54:42;100397.28;;;27.54;32.36
26563;BME280;14217;50.986;5.826;2022-09-03T01:27:07;100401.53;;;27.57;32.56
26563;BME280;14217;50.986;5.826;2022-09-03T01:38:00;100401.41;;;27.58;32.51
26563;BME280;14217;50.986;5.826;2022-09-03T01:48:21;100399.13;;;27.64;32.73
26563;BME280;14217;50.986;5.826;2022-09-03T01:59:06;100399.84;;;27.56;32.60
26563;BME280;14217;50.986;5.826;2022-09-03T02:04:24;100391.78;;;27.56;32.51
26563;BME280;14217;50.986;5.826;2022-09-03T02:09:26;100411.31;;;27.58;32.66
26563;BME280;14217;50.986;5.826;2022-09-03T02:14:34;100399.69;;;27.57;32.83
26563;BME280;14217;50.986;5.826;2022-09-03T02:19:37;100398.84;;;27.57;32.68
26563;BME280;14217;50.986;5.826;2022-09-03T02:24:39;100404.78;;;27.51;32.84
26563;BME280;14217;50.986;5.826;2022-09-03T02:29:41;100388.50;;;27.52;32.90
26563;BME280;14217;50.986;5.826;2022-09-03T02:34:43;100389.94;;;27.56;32.62
26563;BME280;14217;50.986;5.826;2022-09-03T02:39:45;100392.31;;;27.60;32.66
26563;BME280;14217;50.986;5.826;2022-09-03T02:44:52;100391.22;;;27.62;32.62
26563;BME280;14217;50.986;5.826;2022-09-03T02:49:56;100386.09;;;27.59;32.95
26563;BME280;14217;50.986;5.826;2022-09-03T02:54:58;100382.16;;;27.53;33.02
26563;BME280;14217;50.986;5.826;2022-09-03T03:00:00;100381.00;;;27.56;32.57
26563;BME280;14217;50.986;5.826;2022-09-03T03:05:03;100383.41;;;27.59;32.63
26563;BME280;14217;50.986;5.826;2022-09-03T03:10:06;100384.97;;;27.62;32.97
26563;BME280;14217;50.986;5.826;2022-09-03T03:15:09;100397.56;;;27.51;32.84
26563;BME280;14217;50.986;5.826;2022-09-03T03:20:11;100390.22;;;27.63;32.78
26563;BME280;14217;50.986;5.826;2022-09-03T03:25:13;100376.19;;;27.50;32.97
26563;BME280;14217;50.986;5.826;2022-09-03T03:30:16;100386.81;;;27.61;33.00
26563;BME280;14217;50.986;5.826;2022-09-03T03:35:17;100393.19;;;27.60;32.87
26563;BME280;14217;50.986;5.826;2022-09-03T03:40:20;100398.59;;;27.60;32.70
26563;BME280;14217;50.986;5.826;2022-09-03T03:45:22;100397.59;;;27.61;32.80
26563;BME280;14217;50.986;5.826;2022-09-03T03:50:25;100397.59;;;27.61;32.66
26563;BME280;14217;50.986;5.826;2022-09-03T03:55:27;100396.16;;;27.57;32.92
26563;BME280;14217;50.986;5.826;2022-09-03T04:00:32;100384.13;;;27.61;32.89
26563;BME280;14217;50.986;5.826;2022-09-03T04:05:38;100384.00;;;27.63;32.90
26563;BME280;14217;50.986;5.826;2022-09-03T04:10:49;100390.50;;;27.60;32.84
26563;BME280;14217;50.986;5.826;2022-09-03T04:15:51;100388.63;;;27.51;33.36
26563;BME280;14217;50.986;5.826;2022-09-03T04:20:58;100394.31;;;27.57;33.19
26563;BME280;14217;50.986;5.826;2022-09-03T04:26:00;100387.53;;;27.63;33.03
26563;BME280;14217;50.986;5.826;2022-09-03T04:31:04;100382.41;;;27.50;33.06
26563;BME280;14217;50.986;5.826;2022-09-03T04:36:19;100390.94;;;27.55;33.10
26563;BME280;14217;50.986;5.826;2022-09-03T04:41:26;100385.81;;;27.52;33.17
26563;BME280;14217;50.986;5.826;2022-09-03T04:46:29;100383.53;;;27.57;33.31
26563;BME280;14217;50.986;5.826;2022-09-03T04:51:34;100390.94;;;27.55;33.05
26563;BME280;14217;50.986;5.826;2022-09-03T04:56:39;100380.16;;;27.55;33.10
26563;BME280;14217;50.986;5.826;2022-09-03T05:01:42;100388.50;;;27.52;33.05
26563;BME280;14217;50.986;5.826;2022-09-03T05:06:44;100402.09;;;27.51;33.20
26563;BME280;14217;50.986;5.826;2022-09-03T05:11:46;100397.72;;;27.50;33.10
26563;BME280;14217;50.986;5.826;2022-09-03T05:16:48;100402.25;;;27.49;33.42
26563;BME280;14217;50.986;5.826;2022-09-03T05:21:53;100395.03;;;27.50;33.27
26563;BME280;14217;50.986;5.826;2022-09-03T05:26:55;100396.16;;;27.57;33.09
26563;BME280;14217;50.986;5.826;2022-09-03T05:31:57;100409.06;;;27.53;33.30
26563;BME280;14217;50.986;5.826;2022-09-03T05:37:01;100397.16;;;27.56;33.12
26563;BME280;14217;50.986;5.826;2022-09-03T05:42:03;100393.19;;;27.60;33.32
26563;BME280;14217;50.986;5.826;2022-09-03T05:47:06;100401.97;;;27.52;33.29
26563;BME280;14217;50.986;5.826;2022-09-03T05:52:08;100401.28;;;27.60;33.19
26563;BME280;14217;50.986;5.826;2022-09-03T05:57:10;100411.03;;;27.51;33.18
26563;BME280;14217;50.986;5.826;2022-09-03T06:02:12;100408.19;;;27.53;33.30
26563;BME280;14217;50.986;5.826;2022-09-03T06:07:15;100410.16;;;27.51;33.48
26563;BME280;14217;50.986;5.826;2022-09-03T06:12:17;100413.44;;;27.54;33.20
26563;BME280;14217;50.986;5.826;2022-09-03T06:17:19;100409.31;;;27.50;33.19
26563;BME280;14217;50.986;5.826;2022-09-03T06:22:21;100418.06;;;27.43;31.54
26563;BME280;14217;50.986;5.826;2022-09-03T06:27:27;100419.50;;;27.47;31.55
26563;BME280;14217;50.986;5.826;2022-09-03T06:32:29;100420.84;;;27.62;32.21
26563;BME280;14217;50.986;5.826;2022-09-03T06:37:31;100419.81;;;27.63;32.04
26563;BME280;14217;50.986;5.826;2022-09-03T06:42:33;100422.94;;;27.58;32.36
26563;BME280;14217;50.986;5.826;2022-09-03T06:47:35;100426.75;;;27.66;32.02
26563;BME280;14217;50.986;5.826;2022-09-03T06:52:37;100417.59;;;27.68;31.85
26563;BME280;14217;50.986;5.826;2022-09-03T06:57:39;100427.06;;;27.63;31.88
26563;BME280;14217;50.986;5.826;2022-09-03T07:02:41;100421.94;;;27.50;32.66
26563;BME280;14217;50.986;5.826;2022-09-03T07:07:45;100433.81;;;27.47;31.75
26563;BME280;14217;50.986;5.826;2022-09-03T07:12:47;100439.75;;;27.51;30.78
26563;BME280;14217;50.986;5.826;2022-09-03T07:17:49;100432.09;;;27.46;30.87
26563;BME280;14217;50.986;5.826;2022-09-03T07:22:54;100438.66;;;27.53;30.20
26563;BME280;14217;50.986;5.826;2022-09-03T07:27:57;100435.09;;;27.53;30.63
26563;BME280;14217;50.986;5.826;2022-09-03T07:32:59;100437.06;;;27.51;29.95
26563;BME280;14217;50.986;5.826;2022-09-03T07:38:05;100435.13;;;27.63;30.05
26563;BME280;14217;50.986;5.826;2022-09-03T07:43:07;100433.41;;;27.52;30.39
26563;BME280;14217;50.986;5.826;2022-09-03T07:48:09;100434.06;;;27.44;30.28
26563;BME280;14217;50.986;5.826;2022-09-03T07:58:48;100445.13;;;27.51;29.75
26563;BME280;14217;50.986;5.826;2022-09-03T08:03:51;100445.81;;;27.12;29.49
26563;BME280;14217;50.986;5.826;2022-09-03T08:08:55;100440.16;;;27.36;29.52
26563;BME280;14217;50.986;5.826;2022-09-03T08:14:08;100445.69;;;27.45;29.97
26563;BME280;14217;50.986;5.826;2022-09-03T08:19:10;100444.94;;;27.33;29.77
26563;BME280;14217;50.986;5.826;2022-09-03T08:24:15;100451.31;;;27.11;30.38
26563;BME280;14217;50.986;5.826;2022-09-03T08:29:18;100450.53;;;27.20;30.32
26563;BME280;14217;50.986;5.826;2022-09-03T08:34:20;100446.22;;;27.29;30.22
26563;BME280;14217;50.986;5.826;2022-09-03T08:39:22;100454.69;;;27.24;31.04
26563;BME280;14217;50.986;5.826;2022-09-03T08:44:44;100457.38;;;27.24;30.89
26563;BME280;14217;50.986;5.826;2022-09-03T09:00:16;100460.41;;;27.20;32.09
26563;BME280;14217;50.986;5.826;2022-09-03T09:05:24;100467.31;;;27.33;31.82
26563;BME280;14217;50.986;5.826;2022-09-03T09:10:43;100468.34;;;27.42;31.98
26563;BME280;14217;50.986;5.826;2022-09-03T09:16:09;100469.88;;;27.35;32.69
26563;BME280;14217;50.986;5.826;2022-09-03T09:21:54;100475.78;;;27.29;32.60
26563;BME280;14217;50.986;5.826;2022-09-03T09:27:01;100473.94;;;27.29;33.13
26563;BME280;14217;50.986;5.826;2022-09-03T09:32:08;100475.81;;;27.38;32.89
26563;BME280;14217;50.986;5.826;2022-09-03T09:37:12;100476.53;;;27.41;32.70
26563;BME280;14217;50.986;5.826;2022-09-03T09:42:15;100468.34;;;27.42;33.28
26563;BME280;14217;50.986;5.826;2022-09-03T09:47:24;100473.53;;;27.65;33.45
26563;BME280;14217;50.986;5.826;2022-09-03T09:52:28;100471.81;;;27.64;33.99
26563;BME280;14217;50.986;5.826;2022-09-03T09:57:30;100472.75;;;27.53;34.21
26563;BME280;14217;50.986;5.826;2022-09-03T10:02:36;100465.94;;;27.49;33.86
26563;BME280;14217;50.986;5.826;2022-09-03T10:07:38;100462.13;;;27.42;34.40
26563;BME280;14217;50.986;5.826;2022-09-03T10:24:12;100463.19;;;27.60;33.96
26563;BME280;14217;50.986;5.826;2022-09-03T10:29:20;100469.00;;;27.65;33.81
26563;BME280;14217;50.986;5.826;2022-09-03T10:34:33;100460.78;;;27.76;33.83
26563;BME280;14217;50.986;5.826;2022-09-03T10:40:00;100466.34;;;27.75;33.69
26563;BME280;14217;50.986;5.826;2022-09-03T10:45:15;100457.53;;;27.83;34.11
26563;BME280;14217;50.986;5.826;2022-09-03T11:00:39;100458.41;;;27.83;33.92
26563;BME280;14217;50.986;5.826;2022-09-03T11:10:55;100456.13;;;27.78;34.39
26563;BME280;14217;50.986;5.826;2022-09-03T11:16:06;100448.47;;;27.74;34.96
26563;BME280;14217;50.986;5.826;2022-09-03T11:21:14;100449.34;;;27.74;35.43
26563;BME280;14217;50.986;5.826;2022-09-03T11:26:18;100453.84;;;27.74;35.66
26563;BME280;14217;50.986;5.826;2022-09-03T11:31:53;100445.84;;;27.53;36.72
26563;BME280;14217;50.986;5.826;2022-09-03T11:37:28;100436.91;;;27.43;36.51
26563;BME280;14217;50.986;5.826;2022-09-03T11:42:39;100433.69;;;27.58;37.30
26563;BME280;14217;50.986;5.826;2022-09-03T11:47:43;100420.69;;;27.73;36.85
26563;BME280;14217;50.986;5.826;2022-09-03T11:52:46;100423.25;;;27.75;38.62
26563;BME280;14217;50.986;5.826;2022-09-03T11:57:48;100417.59;;;27.68;38.31
26563;BME280;14217;50.986;5.826;2022-09-03T12:02:55;100417.84;;;27.65;37.21
26563;BME280;14217;50.986;5.826;2022-09-03T12:18:32;100436.09;;;27.52;37.07
26563;BME280;14217;50.986;5.826;2022-09-03T12:28:56;100432.31;;;27.64;36.31
26563;BME280;14217;50.986;5.826;2022-09-03T12:34:07;100431.97;;;27.48;36.27
26563;BME280;14217;50.986;5.826;2022-09-03T12:39:18;100428.34;;;27.68;35.71
26563;BME280;14217;50.986;5.826;2022-09-03T12:44:41;100418.13;;;27.72;35.78
26563;BME280;14217;50.986;5.826;2022-09-03T12:49:51;100412.34;;;27.67;35.79
26563;BME280;14217;50.986;5.826;2022-09-03T12:55:14;100417.28;;;27.71;35.47
26563;BME280;14217;50.986;5.826;2022-09-03T13:00:20;100419.09;;;27.51;35.21
26563;BME280;14217;50.986;5.826;2022-09-03T13:05:34;100423.22;;;27.55;35.21
26563;BME280;14217;50.986;5.826;2022-09-03T13:10:39;100428.59;;;27.55;35.34
26563;BME280;14217;50.986;5.826;2022-09-03T13:42:41;100414.47;;;27.83;36.02
26563;BME280;14217;50.986;5.826;2022-09-03T13:48:01;100412.50;;;27.85;35.85
26563;BME280;14217;50.986;5.826;2022-09-03T13:53:38;100417.66;;;27.88;35.85
26563;BME280;14217;50.986;5.826;2022-09-03T13:58:46;100419.47;;;27.97;35.67
26563;BME280;14217;50.986;5.826;2022-09-03T14:03:54;100403.63;;;27.94;35.58
26563;BME280;14217;50.986;5.826;2022-09-03T14:09:32;100415.09;;;27.96;35.45
26563;BME280;14217;50.986;5.826;2022-09-03T14:14:52;100427.63;;;27.66;36.04
26563;BME280;14217;50.986;5.826;2022-09-03T14:20:03;100418.16;;;27.82;35.58
26563;BME280;14217;50.986;5.826;2022-09-03T14:25:15;100425.78;;;27.76;36.32
26563;BME280;14217;50.986;5.826;2022-09-03T14:57:52;100416.81;;;27.87;36.05
26563;BME280;14217;50.986;5.826;2022-09-03T15:14:03;100431.13;;;27.47;35.92
26563;BME280;14217;50.986;5.826;2022-09-03T15:19:23;100434.25;;;27.52;36.04
26563;BME280;14217;50.986;5.826;2022-09-03T15:24:57;100431.31;;;27.55;35.72
26563;BME280;14217;50.986;5.826;2022-09-03T15:30:10;100439.66;;;27.62;35.54
26563;BME280;14217;50.986;5.826;2022-09-03T15:40:48;100432.91;;;27.77;35.36
26563;BME280;14217;50.986;5.826;2022-09-03T15:45:54;100442.22;;;27.73;35.66
26563;BME280;14217;50.986;5.826;2022-09-03T15:51:33;100435.97;;;27.63;35.83
26563;BME280;14217;50.986;5.826;2022-09-03T15:57:36;100436.41;;;27.58;36.04
26563;BME280;14217;50.986;5.826;2022-09-03T16:18:36;100443.78;;;27.66;36.54
26563;BME280;14217;50.986;5.826;2022-09-03T16:24:11;100442.53;;;27.80;36.64
26563;BME280;14217;50.986;5.826;2022-09-03T16:29:14;100443.53;;;27.79;36.51
26563;BME280;14217;50.986;5.826;2022-09-03T16:50:12;100455.53;;;27.55;37.41
26563;BME280;14217;50.986;5.826;2022-09-03T17:00:51;100457.25;;;27.66;38.40
26563;BME280;14217;50.986;5.826;2022-09-03T17:21:38;100474.66;;;27.62;38.00
26563;BME280;14217;50.986;5.826;2022-09-03T17:27:22;100476.16;;;27.55;37.79
26563;BME280;14217;50.986;5.826;2022-09-03T17:53:25;100504.09;;;27.64;37.32
26563;BME280;14217;50.986;5.826;2022-09-03T17:58:39;100498.19;;;27.70;37.24
26563;BME280;14217;50.986;5.826;2022-09-03T18:03:56;100505.69;;;27.66;37.36
26563;BME280;14217;50.986;5.826;2022-09-03T18:14:29;100514.63;;;27.67;37.41
26563;BME280;14217;50.986;5.826;2022-09-03T18:19:54;100529.47;;;27.61;37.32
26563;BME280;14217;50.986;5.826;2022-09-03T18:25:21;100530.28;;;27.62;37.13
26563;BME280;14217;50.986;5.826;2022-09-03T18:30:44;100534.44;;;27.66;37.27
26563;BME280;14217;50.986;5.826;2022-09-03T18:36:05;100539.16;;;27.73;37.14
26563;BME280;14217;50.986;5.826;2022-09-03T18:53:16;100546.78;;;27.68;37.23
26563;BME280;14217;50.986;5.826;2022-09-03T20:50:45;100665.84;;;27.82;37.95
26563;BME280;14217;50.986;5.826;2022-09-03T20:55:50;100665.56;;;27.85;37.94
26563;BME280;14217;50.986;5.826;2022-09-03T21:01:03;100675.78;;;27.81;38.22
26563;BME280;14217;50.986;5.826;2022-09-03T21:06:16;100676.63;;;27.82;38.21
26563;BME280;14217;50.986;5.826;2022-09-03T21:11:38;100680.97;;;27.73;39.46
26563;BME280;14217;50.986;5.826;2022-09-03T21:22:47;100676.03;;;27.78;38.90
26563;BME280;14217;50.986;5.826;2022-09-03T21:27:58;100670.75;;;27.88;38.80
26563;BME280;14217;50.986;5.826;2022-09-03T21:33:06;100677.69;;;27.90;39.02
26563;BME280;14217;50.986;5.826;2022-09-03T21:38:15;100674.34;;;27.77;38.58
26563;BME280;14217;50.986;5.826;2022-09-03T21:43:22;100683.91;;;27.91;38.97
26563;BME280;14217;50.986;5.826;2022-09-03T21:48:33;100688.34;;;27.92;38.51
26563;BME280;14217;50.986;5.826;2022-09-03T21:53:40;100693.13;;;27.88;38.96
26563;BME280;14217;50.986;5.826;2022-09-03T22:04:32;100699.50;;;27.87;38.87
26563;BME280;14217;50.986;5.826;2022-09-03T22:09:43;100708.94;;;27.82;39.55
26563;BME280;14217;50.986;5.826;2022-09-03T22:14:48;100709.41;;;27.87;39.45
26563;BME280;14217;50.986;5.826;2022-09-03T22:19:52;100712.97;;;27.87;39.35
26563;BME280;14217;50.986;5.826;2022-09-03T22:25:02;100717.97;;;27.81;39.62
26563;BME280;14217;50.986;5.826;2022-09-03T22:30:08;100719.81;;;27.80;39.47
26563;BME280;14217;50.986;5.826;2022-09-03T22:41:03;100722.06;;;27.75;39.80
26563;BME280;14217;50.986;5.826;2022-09-03T22:46:30;100720.75;;;27.69;39.83
26563;BME280;14217;50.986;5.826;2022-09-03T22:57:00;100719.78;;;27.70;39.58
26563;BME280;14217;50.986;5.826;2022-09-03T23:07:25;100722.47;;;27.70;39.80
26563;BME280;14217;50.986;5.826;2022-09-03T23:12:36;100722.59;;;27.69;39.77
26563;BME280;14217;50.986;5.826;2022-09-03T23:17:44;100727.84;;;27.70;39.58
26563;BME280;14217;50.986;5.826;2022-09-03T23:22:51;100721.34;;;27.73;39.51
26563;BME280;14217;50.986;5.826;2022-09-03T23:33:24;100734.94;;;27.71;39.57
26563;BME280;14217;50.986;5.826;2022-09-03T23:54:21;100736.44;;;27.64;39.58
